Time;durP1;ratioP1;P1;durP2;ratioP2;P2;SDS_P1;SDS_P2;PMS_P1;PMS_P2;Temp;Humidity;BMP_temperature;BMP_pressure;BME280_temperature;BME280_humidity;BME280_pressure;Samples;Min_cycle;Max_cycle;Signal;HPM_P1;HPM_P2
2023/02/11 00:00:52;;;;;;;18.63;13.38;;;2.10;58.30;;;;;;5046389;28;20018;-49
2023/02/11 00:03:18;;;;;;;18.02;13.50;;;2.20;58.30;;;;;;5048339;28;20036;-52
2023/02/11 00:05:44;;;;;;;17.83;12.52;;;2.30;58.20;;;;;;5045145;28;20471;-52
2023/02/11 00:08:15;;;;;;;19.25;13.30;;;2.30;58.10;;;;;;5044048;28;20033;-52
2023/02/11 00:10:41;;;;;;;16.00;11.80;;;2.40;58.10;;;;;;5054057;28;20032;-51
2023/02/11 00:13:07;;;;;;;18.63;13.15;;;2.50;58.10;;;;;;5053391;28;20104;-52
2023/02/11 00:15:32;;;;;;;16.45;12.25;;;2.60;58.00;;;;;;5048826;28;20039;-53
2023/02/11 00:17:58;;;;;;;15.43;11.90;;;2.60;57.90;;;;;;5056476;28;20029;-52
2023/02/11 00:20:23;;;;;;;15.88;12.63;;;2.70;57.90;;;;;;5036879;28;20032;-53
2023/02/11 00:22:49;;;;;;;16.33;11.95;;;2.70;58.50;;;;;;5040005;28;20060;-53
2023/02/11 00:25:15;;;;;;;18.60;12.60;;;2.80;57.80;;;;;;5040609;28;20041;-52
2023/02/11 00:27:40;;;;;;;18.20;13.18;;;2.80;57.90;;;;;;5053411;28;20029;-61
2023/02/11 00:30:06;;;;;;;17.80;13.02;;;2.90;57.90;;;;;;5048919;28;20479;-61
2023/02/11 00:32:32;;;;;;;20.10;13.80;;;2.90;57.80;;;;;;5052961;28;20116;-50
2023/02/11 00:34:58;;;;;;;16.75;13.07;;;3.00;58.50;;;;;;5033875;28;20511;-54
2023/02/11 00:37:23;;;;;;;19.15;13.43;;;3.00;57.80;;;;;;5032751;28;20029;-57
2023/02/11 00:39:49;;;;;;;16.70;12.65;;;3.00;57.80;;;;;;5044916;28;20108;-54
2023/02/11 00:42:15;;;;;;;16.30;12.70;;;3.10;57.80;;;;;;5053153;28;20447;-63
2023/02/11 00:44:41;;;;;;;16.77;13.07;;;3.10;57.80;;;;;;5043468;28;20461;-61
2023/02/11 00:47:06;;;;;;;17.38;12.43;;;3.10;57.80;;;;;;5046219;28;20394;-62
2023/02/11 00:49:32;;;;;;;16.15;11.93;;;3.10;57.80;;;;;;5044906;28;20056;-61
2023/02/11 00:51:58;;;;;;;19.30;13.27;;;3.20;57.90;;;;;;5050851;28;20032;-61
2023/02/11 00:54:23;;;;;;;16.63;11.55;;;3.20;57.90;;;;;;5052969;28;20052;-61
2023/02/11 00:56:49;;;;;;;16.00;11.93;;;3.20;57.90;;;;;;5052740;28;20384;-61
2023/02/11 00:59:14;;;;;;;16.08;11.82;;;3.20;57.90;;;;;;5050373;28;20037;-61
2023/02/11 01:01:40;;;;;;;16.40;12.10;;;3.20;58.00;;;;;;5046592;28;20025;-61
2023/02/11 01:04:06;;;;;;;14.32;11.38;;;3.20;58.00;;;;;;5052905;28;20033;-60
2023/02/11 01:06:31;;;;;;;14.10;10.55;;;3.20;58.00;;;;;;5048673;28;20037;-62
2023/02/11 01:08:57;;;;;;;16.42;11.45;;;3.10;58.10;;;;;;5052812;28;20390;-61
2023/02/11 01:11:23;;;;;;;16.92;12.45;;;3.00;58.30;;;;;;5046958;28;20429;-61
2023/02/11 01:13:49;;;;;;;14.23;10.43;;;2.90;58.50;;;;;;5049353;28;20460;-61
2023/02/11 01:16:15;;;;;;;16.40;12.60;;;2.90;58.70;;;;;;5047320;28;20435;-61
2023/02/11 01:18:43;;;;;;;17.98;13.05;;;2.80;58.80;;;;;;5041045;28;20037;-61
2023/02/11 01:21:09;;;;;;;17.10;11.70;;;2.80;59.00;;;;;;5034144;28;20041;-61
2023/02/11 01:23:34;;;;;;;15.75;11.07;;;2.80;59.10;;;;;;5036631;28;20032;-61
2023/02/11 01:26:00;;;;;;;15.35;10.85;;;2.80;59.00;;;;;;5045952;28;20475;-61
2023/02/11 01:28:28;;;;;;;13.40;10.93;;;2.80;59.10;;;;;;5055055;28;20463;-60
2023/02/11 01:30:54;;;;;;;16.90;12.75;;;2.80;59.20;;;;;;5046613;28;20031;-62
2023/02/11 01:33:20;;;;;;;17.08;12.38;;;2.70;59.30;;;;;;5039074;28;20030;-62
2023/02/11 01:35:46;;;;;;;15.50;11.55;;;2.80;59.40;;;;;;5053241;28;20021;-60
2023/02/11 01:38:17;;;;;;;16.10;12.20;;;2.80;59.40;;;;;;5048578;28;20033;-61
2023/02/11 01:40:50;;;;;;;16.48;13.10;;;2.80;59.50;;;;;;5044877;28;20091;-61
2023/02/11 01:43:17;;;;;;;16.63;11.93;;;2.90;59.50;;;;;;5039385;28;20038;-62
2023/02/11 01:45:46;;;;;;;15.63;12.07;;;3.00;59.50;;;;;;5053730;28;20027;-61
2023/02/11 01:48:28;;;;;;;16.25;11.82;;;3.00;59.50;;;;;;5041245;28;20041;-61
2023/02/11 01:51:00;;;;;;;16.08;12.10;;;3.10;59.40;;;;;;5045463;28;20502;-62
2023/02/11 01:59:13;;;;;;;15.80;11.25;;;3.10;59.40;;;;;;4976955;28;20035;-62
2023/02/11 02:01:41;;;;;;;16.90;12.02;;;3.20;59.50;;;;;;5046863;28;20388;-63
2023/02/11 02:04:09;;;;;;;15.40;12.40;;;3.30;59.50;;;;;;5050937;28;20033;-63
2023/02/11 02:06:51;;;;;;;15.20;11.93;;;3.30;59.30;;;;;;5051082;28;20076;-61
2023/02/11 02:09:24;;;;;;;18.25;13.13;;;3.40;59.30;;;;;;5052074;28;20565;-60
2023/02/11 02:11:50;;;;;;;18.20;12.57;;;3.40;59.30;;;;;;5046566;28;20438;-59
2023/02/11 02:14:16;;;;;;;18.27;13.70;;;3.40;59.30;;;;;;5047670;28;20028;-59
2023/02/11 02:16:43;;;;;;;16.65;12.65;;;3.50;59.30;;;;;;5052745;28;20096;-48
2023/02/11 02:19:27;;;;;;;17.08;12.30;;;3.50;59.40;;;;;;5050873;28;20071;-50
2023/02/11 02:22:20;;;;;;;18.08;12.30;;;3.60;59.40;;;;;;5051144;28;20053;-60
2023/02/11 02:24:46;;;;;;;14.50;11.55;;;3.60;59.40;;;;;;5039655;28;20132;-61
2023/02/11 02:27:41;;;;;;;15.05;11.60;;;3.60;59.40;;;;;;5050984;28;20119;-61
2023/02/11 02:30:31;;;;;;;13.68;10.73;;;3.70;59.40;;;;;;5051938;28;20119;-61
2023/02/11 02:33:03;;;;;;;14.02;11.40;;;3.60;59.50;;;;;;5051965;28;20033;-61
2023/02/11 02:35:28;;;;;;;;;;;3.70;59.60;;;;;;5038269;28;20479;-60
2023/02/11 02:38:22;;;;;;;13.18;10.43;;;3.60;59.60;;;;;;5051729;28;20034;-60
2023/02/11 02:40:51;;;;;;;16.85;12.57;;;3.70;59.50;;;;;;5048347;28;20033;-60
2023/02/11 02:43:18;;;;;;;15.85;12.00;;;3.70;59.50;;;;;;5044091;28;20040;-60
2023/02/11 02:45:43;;;;;;;18.23;13.10;;;3.70;59.50;;;;;;5046717;28;20064;-61
2023/02/11 02:48:30;;;;;;;15.30;11.73;;;3.70;59.60;;;;;;5050468;28;20071;-60
2023/02/11 02:51:22;;;;;;;13.85;11.00;;;3.70;59.60;;;;;;5052358;28;20028;-60
2023/02/11 02:54:23;;;;;;;17.05;12.40;;;3.70;59.70;;;;;;5035485;28;20499;-60
2023/02/11 02:56:56;;;;;;;19.80;12.95;;;3.60;59.70;;;;;;5043410;28;20123;-61
2023/02/11 02:59:56;;;;;;;19.10;12.98;;;3.50;59.90;;;;;;5044214;28;20483;-60
2023/02/11 03:02:32;;;;;;;17.58;12.95;;;3.50;60.10;;;;;;4992701;28;20037;-60
2023/02/11 03:05:16;;;;;;;18.27;12.93;;;3.50;60.20;;;;;;5045142;28;20030;-60
2023/02/11 03:07:53;;;;;;;20.00;13.73;;;3.60;60.20;;;;;;5042089;28;20045;-61
2023/02/11 03:10:25;;;;;;;17.67;13.07;;;3.60;60.20;;;;;;5050385;28;20029;-61
2023/02/11 03:12:53;;;;;;;16.70;12.98;;;3.60;60.20;;;;;;5054534;28;20459;-60
2023/02/11 03:15:22;;;;;;;16.48;12.50;;;3.70;60.30;;;;;;5046908;28;20506;-61
2023/02/11 03:17:50;;;;;;;16.83;12.23;;;3.70;60.20;;;;;;5041425;28;20029;-60
2023/02/11 03:20:19;;;;;;;16.55;12.48;;;3.70;60.20;;;;;;5045824;28;20483;-60
2023/02/11 03:22:51;;;;;;;19.67;12.88;;;3.80;60.20;;;;;;5046384;28;20434;-61
2023/02/11 03:25:18;;;;;;;16.42;11.98;;;3.70;60.10;;;;;;5050888;28;20032;-61
2023/02/11 03:27:53;;;;;;;16.27;12.43;;;3.80;60.10;;;;;;5045679;28;20061;-60
2023/02/11 03:30:29;;;;;;;16.50;12.45;;;3.80;60.10;;;;;;5040820;28;20020;-61
2023/02/11 03:33:01;;;;;;;16.55;12.20;;;3.80;60.10;;;;;;5042478;28;20029;-61
2023/02/11 03:35:37;;;;;;;16.25;12.93;;;3.80;60.10;;;;;;5050687;28;20041;-61
2023/02/11 03:38:14;;;;;;;16.80;12.85;;;3.80;60.10;;;;;;5050369;28;20086;-61
2023/02/11 03:40:42;;;;;;;16.30;11.90;;;3.90;60.10;;;;;;5051444;28;20102;-61
2023/02/11 03:43:16;;;;;;;19.25;13.68;;;3.80;60.10;;;;;;5048032;28;20455;-61
2023/02/11 03:45:43;;;;;;;13.15;11.38;;;3.80;60.30;;;;;;5046867;28;20045;-60
2023/02/11 03:48:32;;;;;;;16.50;13.18;;;3.70;60.50;;;;;;5049811;28;20388;-61
2023/02/11 03:51:01;;;;;;;16.50;11.95;;;3.70;60.50;;;;;;5045713;28;20028;-60
2023/02/11 03:53:27;;;;;;;19.13;12.88;;;3.60;60.70;;;;;;5033802;28;20025;-60
2023/02/11 03:55:55;;;;;;;17.85;12.73;;;3.60;60.90;;;;;;5044732;28;20048;-59
2023/02/11 03:58:21;;;;;;;18.23;13.52;;;3.60;61.00;;;;;;5046914;28;20210;-60
2023/02/11 04:00:48;;;;;;;18.42;12.85;;;3.70;61.00;;;;;;5053977;28;20033;-60
2023/02/11 04:03:14;;;;;;;17.00;12.88;;;3.60;60.90;;;;;;5050968;28;20040;-59
2023/02/11 04:05:40;;;;;;;19.92;13.10;;;3.70;60.90;;;;;;5042793;28;20037;-60
2023/02/11 04:08:06;;;;;;;15.80;12.88;;;3.70;61.00;;;;;;5050506;28;20104;-60
2023/02/11 04:10:32;;;;;;;16.30;12.50;;;3.70;61.00;;;;;;5046150;28;20945;-60
2023/02/11 04:12:58;;;;;;;16.90;12.95;;;3.80;61.60;;;;;;5047317;28;20091;-61
2023/02/11 04:15:24;;;;;;;16.05;12.30;;;3.80;61.00;;;;;;5047401;28;20032;-61
2023/02/11 04:17:50;;;;;;;17.60;12.65;;;3.80;61.00;;;;;;5050446;28;20033;-60
2023/02/11 04:20:15;;;;;;;15.10;12.23;;;3.80;61.00;;;;;;5048736;28;20294;-60
2023/02/11 04:22:41;;;;;;;18.92;13.75;;;3.80;61.00;;;;;;5043778;28;20068;-61
2023/02/11 04:25:08;;;;;;;16.85;12.73;;;3.80;61.60;;;;;;5051922;28;20105;-61
2023/02/11 04:27:34;;;;;;;19.83;14.40;;;3.80;61.10;;;;;;5057011;28;20037;-61
2023/02/11 04:30:00;;;;;;;15.70;12.45;;;3.80;61.10;;;;;;5041085;28;20033;-60
2023/02/11 04:32:26;;;;;;;18.48;13.52;;;3.80;61.10;;;;;;5048304;28;20074;-60
2023/02/11 04:34:51;;;;;;;16.88;13.50;;;3.80;61.20;;;;;;5048340;28;20029;-61
2023/02/11 04:37:17;;;;;;;15.65;13.02;;;3.80;61.30;;;;;;5049373;28;20025;-60
2023/02/11 04:39:42;;;;;;;15.75;12.50;;;3.70;61.50;;;;;;5040325;28;20033;-61
2023/02/11 04:42:08;;;;;;;16.10;12.43;;;3.70;61.50;;;;;;5045797;28;20029;-62
2023/02/11 04:44:34;;;;;;;18.33;13.23;;;3.70;61.60;;;;;;5048135;28;20025;-61
2023/02/11 04:47:00;;;;;;;17.27;12.68;;;3.60;61.80;;;;;;5041487;28;20475;-61
2023/02/11 04:49:25;;;;;;;17.00;12.60;;;3.60;62.00;;;;;;5046514;28;20034;-61
2023/02/11 04:51:51;;;;;;;15.98;12.48;;;3.60;62.10;;;;;;5045237;28;20029;-62
2023/02/11 04:54:17;;;;;;;17.10;12.43;;;3.50;62.20;;;;;;5049462;28;20510;-60
2023/02/11 04:56:43;;;;;;;15.90;12.70;;;3.50;62.20;;;;;;5039104;28;20033;-61
2023/02/11 04:59:08;;;;;;;17.20;12.07;;;3.50;62.30;;;;;;5045501;28;20505;-59
2023/02/11 05:01:34;;;;;;;18.23;13.13;;;3.50;62.40;;;;;;5049195;28;20026;-61
2023/02/11 05:04:00;;;;;;;16.55;12.35;;;3.50;62.50;;;;;;5050259;28;20090;-61
2023/02/11 05:06:25;;;;;;;17.65;12.38;;;3.40;62.60;;;;;;5052140;28;20095;-60
2023/02/11 05:08:51;;;;;;;18.42;13.32;;;3.40;62.70;;;;;;5050319;28;20037;-61
2023/02/11 05:11:20;;;;;;;17.95;12.95;;;3.40;62.80;;;;;;5052800;28;20533;-61
2023/02/11 05:13:46;;;;;;;19.55;12.75;;;3.40;63.00;;;;;;5050935;28;20075;-61
2023/02/11 05:16:13;;;;;;;18.48;13.45;;;3.40;63.00;;;;;;5052035;28;20041;-61
2023/02/11 05:18:41;;;;;;;17.13;13.00;;;3.40;62.90;;;;;;5052362;28;20039;-61
2023/02/11 05:21:13;;;;;;;20.83;14.68;;;3.50;63.00;;;;;;5004691;28;1152267;-60
2023/02/11 05:23:39;;;;;;;18.38;14.20;;;3.50;62.90;;;;;;5051209;28;20024;-61
2023/02/11 05:26:05;;;;;;;19.85;14.35;;;3.40;62.90;;;;;;5044770;28;20029;-61
2023/02/11 05:28:31;;;;;;;18.95;13.73;;;3.40;63.00;;;;;;5050698;28;20115;-61
2023/02/11 05:30:57;;;;;;;17.45;13.27;;;3.40;63.10;;;;;;5049358;28;20061;-60
2023/02/11 05:33:23;;;;;;;17.48;13.50;;;3.40;63.40;;;;;;5053679;28;20087;-60
2023/02/11 05:35:49;;;;;;;18.52;14.50;;;3.40;63.30;;;;;;5047030;28;20029;-61
2023/02/11 05:38:14;;;;;;;21.80;16.02;;;3.40;63.50;;;;;;5052457;28;20055;-61
2023/02/11 05:40:40;;;;;;;18.65;13.75;;;3.40;63.40;;;;;;5045702;28;20036;-61
2023/02/11 05:43:06;;;;;;;19.45;14.30;;;3.40;63.50;;;;;;5052837;28;20028;-60
2023/02/11 05:45:32;;;;;;;19.05;13.90;;;3.40;63.50;;;;;;5053431;28;20396;-61
2023/02/11 05:47:58;;;;;;;20.52;13.73;;;3.40;63.50;;;;;;5046563;28;20032;-61
2023/02/11 05:50:24;;;;;;;15.73;12.45;;;3.40;63.60;;;;;;5046427;28;20523;-60
2023/02/11 05:52:49;;;;;;;17.45;13.30;;;3.40;63.60;;;;;;5053156;28;20028;-60
2023/02/11 05:55:15;;;;;;;18.00;12.93;;;3.40;63.50;;;;;;5044292;28;20051;-60
2023/02/11 05:57:41;;;;;;;15.90;12.25;;;3.40;63.60;;;;;;5052183;28;20391;-58
2023/02/11 06:00:07;;;;;;;16.75;12.95;;;3.30;63.70;;;;;;5053029;28;20035;-59
2023/02/11 06:02:33;;;;;;;16.65;13.57;;;3.30;63.80;;;;;;5050683;28;20025;-61
2023/02/11 06:04:59;;;;;;;23.38;14.88;;;3.30;63.90;;;;;;5044932;28;20022;-61
2023/02/11 06:07:25;;;;;;;18.65;13.52;;;3.30;64.00;;;;;;5039058;28;20033;-60
2023/02/11 06:09:50;;;;;;;18.83;14.70;;;3.30;64.10;;;;;;5044453;28;20026;-61
2023/02/11 06:12:16;;;;;;;21.05;15.48;;;3.30;64.20;;;;;;5042753;28;20270;-61
2023/02/11 06:14:42;;;;;;;20.83;14.20;;;3.30;64.20;;;;;;5047731;28;20033;-61
2023/02/11 06:17:07;;;;;;;23.08;15.65;;;3.30;64.30;;;;;;5046421;28;20079;-61
2023/02/11 06:19:33;;;;;;;21.13;14.40;;;3.30;64.30;;;;;;5050053;28;20592;-61
2023/02/11 06:21:59;;;;;;;19.77;14.05;;;3.30;64.40;;;;;;5044424;28;20048;-61
2023/02/11 06:24:24;;;;;;;18.48;12.77;;;3.30;64.40;;;;;;5051515;28;20033;-62
2023/02/11 06:26:50;;;;;;;20.23;14.25;;;3.30;64.40;;;;;;5051907;28;20036;-61
2023/02/11 06:29:16;;;;;;;18.02;12.98;;;3.30;65.20;;;;;;5045370;28;20376;-60
2023/02/11 06:31:41;;;;;;;20.05;14.13;;;3.30;64.60;;;;;;5044808;28;20183;-60
2023/02/11 06:34:09;;;;;;;19.17;13.40;;;3.30;64.60;;;;;;5045973;28;20034;-60
2023/02/11 06:36:35;;;;;;;20.33;14.00;;;3.30;64.80;;;;;;5050610;28;20036;-61
2023/02/11 06:39:02;;;;;;;21.63;14.65;;;3.40;64.80;;;;;;5047320;28;20390;-63
2023/02/11 06:41:27;;;;;;;21.70;14.57;;;3.40;64.80;;;;;;5052049;28;20017;-61
2023/02/11 06:43:53;;;;;;;18.73;14.32;;;3.50;64.80;;;;;;5051610;28;20033;-61
2023/02/11 06:46:19;;;;;;;19.50;14.43;;;3.60;64.90;;;;;;5049458;28;20056;-61
2023/02/11 06:48:45;;;;;;;19.38;14.60;;;3.70;64.80;;;;;;5039225;28;20037;-60
2023/02/11 06:51:13;;;;;;;19.77;14.43;;;3.80;64.60;;;;;;5048593;28;20021;-61
2023/02/11 06:53:41;;;;;;;21.63;15.55;;;3.90;64.40;;;;;;5050062;28;20388;-60
2023/02/11 06:56:09;;;;;;;19.75;14.02;;;4.00;64.40;;;;;;5048843;28;20102;-61
2023/02/11 06:58:35;;;;;;;18.77;13.63;;;4.10;64.30;;;;;;5040456;28;20033;-60
2023/02/11 07:01:10;;;;;;;19.65;14.35;;;4.30;64.10;;;;;;5051032;28;20083;-61
2023/02/11 07:03:37;;;;;;;21.95;16.25;;;4.30;63.90;;;;;;5050973;28;20036;-61
2023/02/11 07:06:04;;;;;;;20.33;15.38;;;4.40;63.80;;;;;;5050892;28;20379;-61
2023/02/11 07:08:31;;;;;;;19.67;14.77;;;4.40;63.70;;;;;;5047896;28;20104;-60
2023/02/11 07:10:57;;;;;;;22.27;14.93;;;4.40;63.60;;;;;;5052110;28;20029;-61
2023/02/11 07:13:23;;;;;;;21.27;15.35;;;4.40;63.60;;;;;;5044168;28;20103;-61
2023/02/11 07:15:49;;;;;;;25.27;16.70;;;4.50;63.70;;;;;;5050575;28;20513;-61
2023/02/11 07:18:14;;;;;;;23.40;16.48;;;4.60;63.80;;;;;;5042831;28;20367;-60
2023/02/11 07:20:40;;;;;;;20.83;15.20;;;4.60;63.70;;;;;;5053496;28;20378;-60
2023/02/11 07:23:06;;;;;;;19.80;14.38;;;4.60;63.60;;;;;;5051853;28;20036;-61
2023/02/11 07:25:32;;;;;;;23.65;16.55;;;4.60;63.60;;;;;;5025625;28;20043;-60
2023/02/11 07:27:57;;;;;;;20.00;15.00;;;4.60;63.70;;;;;;5040572;28;20056;-61
2023/02/11 07:30:23;;;;;;;22.08;15.45;;;4.60;63.70;;;;;;5044510;28;20048;-61
2023/02/11 07:32:48;;;;;;;19.58;14.77;;;4.70;63.80;;;;;;5041640;28;20021;-61
2023/02/11 07:35:14;;;;;;;20.38;15.55;;;4.70;63.80;;;;;;5052518;28;20031;-61
2023/02/11 07:37:43;;;;;;;21.08;15.65;;;4.60;63.80;;;;;;5050457;28;20025;-61
2023/02/11 07:40:09;;;;;;;23.02;16.30;;;4.50;63.90;;;;;;5050279;28;20025;-60
2023/02/11 07:42:34;;;;;;;23.05;15.32;;;4.50;64.00;;;;;;5047660;28;20060;-60
2023/02/11 07:45:00;;;;;;;18.40;14.18;;;4.40;64.10;;;;;;5043450;28;20513;-61
2023/02/11 07:47:26;;;;;;;20.33;14.52;;;4.40;64.10;;;;;;5049271;28;20040;-61
2023/02/11 07:49:52;;;;;;;18.50;13.48;;;4.40;64.30;;;;;;5046542;28;20395;-61
2023/02/11 07:52:17;;;;;;;19.42;14.57;;;4.30;64.40;;;;;;5049831;28;20033;-61
2023/02/11 07:54:44;;;;;;;22.35;15.90;;;4.30;64.50;;;;;;5049264;28;20025;-60
2023/02/11 07:57:10;;;;;;;21.42;14.43;;;4.20;64.50;;;;;;5050504;28;20368;-61
2023/02/11 07:59:35;;;;;;;25.20;15.98;;;4.30;64.70;;;;;;5051882;28;20074;-61
2023/02/11 08:02:01;;;;;;;27.08;17.23;;;4.30;64.80;;;;;;5043685;28;20463;-61
2023/02/11 08:04:27;;;;;;;20.40;14.90;;;4.30;64.70;;;;;;5037462;28;20026;-60
2023/02/11 08:06:55;;;;;;;21.02;15.35;;;4.40;64.60;;;;;;5035590;28;20076;-61
2023/02/11 08:09:21;;;;;;;19.42;14.57;;;4.40;64.60;;;;;;5044720;28;20036;-62
2023/02/11 08:11:47;;;;;;;21.02;14.77;;;4.40;64.60;;;;;;5034568;28;20400;-60
2023/02/11 08:14:13;;;;;;;23.15;15.82;;;4.40;64.60;;;;;;5047057;28;20032;-60
2023/02/11 08:16:39;;;;;;;20.38;14.27;;;4.50;64.60;;;;;;5043809;28;20037;-60
2023/02/11 08:19:10;;;;;;;20.30;14.70;;;4.50;64.60;;;;;;5045980;28;20033;-61
2023/02/11 08:21:38;;;;;;;20.00;14.88;;;4.50;64.60;;;;;;5044530;28;20057;-60
2023/02/11 08:24:04;;;;;;;17.60;13.48;;;4.50;64.60;;;;;;5049641;28;20491;-61
2023/02/11 08:26:33;;;;;;;22.30;14.93;;;4.50;64.60;;;;;;5039710;28;20029;-59
2023/02/11 08:29:00;;;;;;;24.55;14.82;;;4.50;64.70;;;;;;5046735;28;20044;-60
2023/02/11 08:31:34;;;;;;;20.40;13.93;;;4.60;64.60;;;;;;5043602;28;20032;-61
2023/02/11 08:34:01;;;;;;;20.75;14.20;;;4.60;64.60;;;;;;5035874;28;20063;-60
2023/02/11 08:36:32;;;;;;;21.95;14.10;;;4.60;64.60;;;;;;5046077;28;20360;-61
2023/02/11 08:39:02;;;;;;;18.80;13.98;;;4.60;64.60;;;;;;5040692;28;20142;-60
2023/02/11 08:41:28;;;;;;;18.20;13.05;;;4.70;64.70;;;;;;5043261;28;20512;-61
2023/02/11 08:43:53;;;;;;;21.15;14.63;;;4.70;64.70;;;;;;5044072;28;20029;-60
2023/02/11 08:46:19;;;;;;;19.38;14.18;;;4.70;64.80;;;;;;5047913;28;20086;-60
2023/02/11 08:48:46;;;;;;;21.88;15.10;;;4.80;64.90;;;;;;5044200;28;20033;-60
2023/02/11 08:51:23;;;;;;;17.75;13.80;;;4.90;64.90;;;;;;5053386;28;20022;-60
2023/02/11 08:53:50;;;;;;;17.88;13.05;;;5.00;64.70;;;;;;5054027;28;20025;-60
2023/02/11 08:56:18;;;;;;;17.10;12.80;;;5.20;64.70;;;;;;5053827;28;20032;-60
2023/02/11 08:58:44;;;;;;;18.67;13.50;;;5.30;64.40;;;;;;5053414;28;20032;-60
2023/02/11 09:01:18;;;;;;;19.27;13.05;;;5.40;64.30;;;;;;5041746;28;20036;-61
2023/02/11 09:03:52;;;;;;;20.00;13.50;;;5.40;64.10;;;;;;5043716;28;20472;-60
2023/02/11 09:06:17;;;;;;;18.85;13.23;;;5.50;64.00;;;;;;5045213;28;20048;-61
2023/02/11 09:08:46;;;;;;;19.90;14.63;;;5.50;63.90;;;;;;5047552;28;20387;-60
2023/02/11 09:11:12;;;;;;;18.88;13.65;;;5.60;63.70;;;;;;5041790;28;20384;-60
2023/02/11 09:13:41;;;;;;;21.95;15.52;;;5.70;63.60;;;;;;5041732;28;20110;-60
2023/02/11 09:16:07;;;;;;;19.55;14.55;;;5.70;63.50;;;;;;5043161;28;20041;-59
2023/02/11 09:18:33;;;;;;;19.98;13.75;;;5.80;63.50;;;;;;5042172;28;20451;-60
2023/02/11 09:21:06;;;;;;;18.30;13.15;;;5.90;63.40;;;;;;5040000;28;20106;-60
2023/02/11 09:23:33;;;;;;;19.45;13.55;;;6.00;63.10;;;;;;5041003;28;20479;-60
2023/02/11 09:26:15;;;;;;;17.77;12.82;;;6.00;62.80;;;;;;5053138;28;20033;-60
2023/02/11 09:28:40;;;;;;;;;;;6.00;62.70;;;;;;5038350;28;20049;-61
2023/02/11 09:31:08;;;;;;;16.40;11.65;;;5.90;62.70;;;;;;5036763;28;19960;-61
2023/02/11 09:33:34;;;;;;;20.17;12.73;;;5.90;62.70;;;;;;5036094;28;20387;-60
2023/02/11 09:36:09;;;;;;;21.35;13.10;;;5.90;62.70;;;;;;5041312;28;20426;-60
2023/02/11 09:38:34;;;;;;;18.52;13.27;;;6.00;62.60;;;;;;5034621;28;20026;-60
2023/02/11 09:41:02;;;;;;;19.33;12.48;;;6.00;62.50;;;;;;5041393;28;20052;-60
2023/02/11 09:43:45;;;;;;;17.15;11.65;;;6.10;62.50;;;;;;5040346;28;20021;-60
2023/02/11 09:46:16;;;;;;;14.60;11.23;;;6.10;62.20;;;;;;5042159;28;20044;-60
2023/02/11 09:48:45;;;;;;;14.02;10.80;;;6.10;62.10;;;;;;5033766;28;20040;-60
2023/02/11 09:51:34;;;;;;;15.75;11.88;;;6.10;62.00;;;;;;5045645;28;20071;-60
2023/02/11 09:54:06;;;;;;;15.10;11.10;;;6.10;62.10;;;;;;5043556;28;20043;-60
2023/02/11 09:56:32;;;;;;;;;;;6.00;62.10;;;;;;5042219;28;20037;-60
2023/02/11 09:58:58;;;;;;;15.95;10.77;;;6.00;62.00;;;;;;5042913;28;19963;-59
2023/02/11 10:01:32;;;;;;;16.38;11.98;;;6.00;62.30;;;;;;5039960;28;20368;-60
2023/02/11 10:04:42;;;;;;;18.75;12.40;;;6.00;62.30;;;;;;5044542;28;20033;-61
2023/02/11 10:07:24;;;;;;;16.45;11.63;;;6.00;62.60;;;;;;5000251;28;20452;-59
2023/02/11 10:10:26;;;;;;;20.45;13.55;;;6.10;62.50;;;;;;5056045;28;20108;-59
2023/02/11 10:13:21;;;;;;;18.58;12.90;;;6.20;62.30;;;;;;5056227;28;20032;-60
2023/02/11 10:15:58;;;;;;;15.15;10.80;;;6.30;62.20;;;;;;5017568;28;20051;-61
2023/02/11 10:18:53;;;;;;;15.20;11.02;;;6.40;61.90;;;;;;5036528;28;20034;-60
2023/02/11 10:21:50;;;;;;;12.63;9.95;;;6.40;61.70;;;;;;5035236;28;20101;-60
2023/02/11 10:24:17;;;;;;;13.77;8.88;;;6.40;61.30;;;;;;5043255;28;20438;-60
2023/02/11 10:26:44;;;;;;;11.48;8.27;;;6.40;61.20;;;;;;5055478;28;20083;-59
2023/02/11 10:29:30;;;;;;;11.00;8.38;;;6.40;61.00;;;;;;5056284;28;20032;-59
2023/02/11 10:31:57;;;;;;;9.98;8.02;;;6.40;60.70;;;;;;5056080;28;20115;-60
2023/02/11 10:34:23;;;;;;;14.25;8.73;;;6.30;60.80;;;;;;5055111;28;20094;-61
2023/02/11 10:36:49;;;;;;;13.88;8.88;;;6.30;60.80;;;;;;5056233;28;20029;-60
2023/02/11 10:39:17;;;;;;;13.38;9.40;;;6.30;61.10;;;;;;5055703;28;20065;-60
2023/02/11 10:41:58;;;;;;;13.68;9.15;;;6.40;61.10;;;;;;5056042;28;20036;-60
2023/02/11 10:44:26;;;;;;;12.05;9.07;;;6.40;60.80;;;;;;5055886;28;20371;-60
2023/02/11 10:46:53;;;;;;;13.10;9.02;;;6.50;60.70;;;;;;5055956;28;20459;-60
2023/02/11 10:49:38;;;;;;;12.32;9.15;;;6.70;60.60;;;;;;5051005;28;20044;-60
2023/02/11 10:52:23;;;;;;;12.25;9.30;;;6.80;60.40;;;;;;5036801;28;20033;-61
2023/02/11 10:55:13;;;;;;;11.43;8.02;;;6.80;60.80;;;;;;5045596;28;20353;-60
2023/02/11 10:58:00;;;;;;;12.25;8.55;;;6.90;59.90;;;;;;5035146;28;20032;-60
2023/02/11 11:00:35;;;;;;;13.60;8.45;;;6.90;59.60;;;;;;5035602;28;20498;-60
2023/02/11 11:03:02;;;;;;;11.55;7.88;;;7.00;59.30;;;;;;5043879;28;20025;-60
2023/02/11 11:05:31;;;;;;;13.07;8.65;;;6.90;59.20;;;;;;5044687;28;20150;-60
2023/02/11 11:08:08;;;;;;;14.00;8.77;;;6.90;59.00;;;;;;5035439;28;20494;-59
2023/02/11 11:11:02;;;;;;;10.77;8.32;;;6.90;58.80;;;;;;5035722;28;20371;-61
2023/02/11 11:13:29;;;;;;;11.27;7.85;;;6.90;58.90;;;;;;5035257;28;20112;-60
2023/02/11 11:16:13;;;;;;;13.18;8.65;;;6.90;58.90;;;;;;5035254;28;20023;-60
2023/02/11 11:18:40;;;;;;;10.43;7.88;;;6.90;58.80;;;;;;5035189;28;20026;-60
2023/02/11 11:21:15;;;;;;;12.27;8.02;;;6.90;58.80;;;;;;5044428;28;20367;-60
2023/02/11 11:23:51;;;;;;;10.48;7.72;;;6.90;58.90;;;;;;5055445;28;20108;-59
2023/02/11 11:26:18;;;;;;;10.85;7.78;;;7.00;59.10;;;;;;5054104;28;20371;-60
2023/02/11 11:28:51;;;;;;;9.85;7.90;;;7.00;58.70;;;;;;5051379;28;20487;-60
2023/02/11 11:31:23;;;;;;;12.73;8.32;;;7.00;58.70;;;;;;5054579;28;20039;-59
2023/02/11 11:33:52;;;;;;;13.23;8.82;;;7.00;58.80;;;;;;5054701;28;20384;-60
2023/02/11 11:36:29;;;;;;;14.05;9.43;;;7.00;58.80;;;;;;5054926;28;20067;-60
2023/02/11 11:38:59;;;;;;;15.30;9.05;;;7.00;58.70;;;;;;5054537;28;20085;-59
2023/02/11 11:41:29;;;;;;;10.82;8.05;;;7.00;58.70;;;;;;5049066;28;20048;-60
2023/02/11 11:43:55;;;;;;;9.35;8.35;;;7.00;58.70;;;;;;5042991;28;20042;-60
2023/02/11 11:46:35;;;;;;;11.77;8.52;;;7.00;58.80;;;;;;5034893;28;20041;-60
2023/02/11 11:49:18;;;;;;;12.90;9.00;;;7.00;58.70;;;;;;5034653;28;20486;-59
2023/02/11 11:51:53;;;;;;;11.95;8.63;;;6.90;58.80;;;;;;5048293;28;20044;-59
2023/02/11 11:54:20;;;;;;;11.88;8.68;;;6.80;59.00;;;;;;5054290;28;20474;-59
2023/02/11 11:57:11;;;;;;;11.68;8.93;;;6.70;59.10;;;;;;5053672;28;20025;-59
2023/02/11 11:59:37;;;;;;;14.52;9.73;;;6.50;59.30;;;;;;5042725;28;20496;-59
2023/02/11 12:02:25;;;;;;;11.70;8.80;;;6.40;59.60;;;;;;5054115;28;20052;-59
2023/02/11 12:05:09;;;;;;;11.40;8.50;;;6.40;59.80;;;;;;5054047;28;20112;-59
2023/02/11 12:07:35;;;;;;;11.38;8.25;;;6.30;60.00;;;;;;5054272;28;20033;-59
2023/02/11 12:10:17;;;;;;;13.70;9.63;;;6.30;60.10;;;;;;5053954;28;20048;-59
2023/02/11 12:12:46;;;;;;;12.32;9.25;;;6.30;60.20;;;;;;5048349;28;20029;-60
2023/02/11 12:15:26;;;;;;;11.85;8.90;;;6.20;60.30;;;;;;5038476;28;20029;-60
2023/02/11 12:18:22;;;;;;;13.38;7.78;;;6.20;60.30;;;;;;5039117;28;20467;-61
2023/02/11 12:21:00;;;;;;;10.73;8.13;;;6.30;60.40;;;;;;5036630;28;20086;-60
2023/02/11 12:23:37;;;;;;;11.50;8.35;;;6.20;61.10;;;;;;5044223;28;20041;-60
2023/02/11 12:26:03;;;;;;;10.80;8.20;;;6.20;60.60;;;;;;5039867;28;20025;-60
2023/02/11 12:28:43;;;;;;;12.15;8.27;;;6.20;60.70;;;;;;5034747;28;20040;-61
2023/02/11 12:31:32;;;;;;;11.60;8.25;;;6.20;60.80;;;;;;5034434;28;20347;-60
2023/02/11 12:34:04;;;;;;;12.27;8.13;;;6.20;60.80;;;;;;5033417;28;20025;-60
2023/02/11 12:37:00;;;;;;;11.07;8.05;;;6.20;60.80;;;;;;5042327;28;20032;-60
2023/02/11 12:39:29;;;;;;;10.63;8.35;;;6.20;60.90;;;;;;5050327;28;20025;-60
2023/02/11 12:45:17;;;;;;;10.82;8.57;;;6.20;61.00;;;;;;5039578;28;20100;-60
2023/02/11 12:48:04;;;;;;;12.68;8.68;;;6.20;61.10;;;;;;5024267;28;20094;-60
2023/02/11 12:50:33;;;;;;;11.32;8.25;;;6.20;61.20;;;;;;5036585;28;20025;-59
2023/02/11 12:53:10;;;;;;;12.27;8.65;;;6.10;62.00;;;;;;5038240;28;20562;-60
2023/02/11 12:55:41;;;;;;;12.63;8.93;;;6.10;61.40;;;;;;5036031;28;20056;-60
2023/02/11 12:58:14;;;;;;;12.15;8.80;;;6.10;61.50;;;;;;5037287;28;20467;-60
2023/02/11 13:00:42;;;;;;;11.30;8.65;;;6.10;61.50;;;;;;5031900;28;20040;-60
2023/02/11 13:03:12;;;;;;;12.32;8.48;;;6.10;61.50;;;;;;5045430;28;20025;-59
2023/02/11 13:05:57;;;;;;;11.35;8.52;;;6.10;61.60;;;;;;5037147;28;20030;-58